UAL469 KLAX-KSFO
Flight info
| Callsign | UAL469 |
|---|---|
| Flight time | 0h 52m |
| Altitude | 36000 |
| Route | SUMMR2 STOKD SERFR SERFR4 |
| Aircraft | A320/M-SDE3FGHIRWY/LB1 |
Departure
| Time | 2026-05-07 16:31 |
|---|---|
| Airport | Los Angeles International Airport (KLAX) |
Arrival
| Time | 2026-05-07 17:23 |
|---|---|
| Airport | San Francisco International Airport (KSFO) |
| Time | Latitude | Longitude | Altitude | Speed | Heading |
|---|---|---|---|---|---|
| 2026-05-07 15:50 | 33.94239 | -118.40044 | 95 ft | 0 kts | 88° |
| 2026-05-07 16:22 | 33.94239 | -118.40053 | 93 ft | 4 kts | 89° |
| 2026-05-07 16:22 | 33.94240 | -118.40085 | 92 ft | 4 kts | 104° |
| 2026-05-07 16:22 | 33.94244 | -118.40101 | 93 ft | 4 kts | 120° |
| 2026-05-07 16:23 | 33.94223 | -118.40095 | 93 ft | 4 kts | 173° |
| 2026-05-07 16:23 | 33.94200 | -118.40092 | 93 ft | 4 kts | 173° |
| 2026-05-07 16:23 | 33.94174 | -118.40088 | 93 ft | 2 kts | 173° |
| 2026-05-07 16:23 | 33.94171 | -118.40088 | 96 ft | 0 kts | 173° |
| 2026-05-07 16:24 | 33.94171 | -118.40087 | 96 ft | 0 kts | 173° |
| 2026-05-07 16:26 | 33.94170 | -118.40087 | 93 ft | 1 kts | 173° |
| 2026-05-07 16:26 | 33.94139 | -118.40083 | 93 ft | 10 kts | 173° |
| 2026-05-07 16:26 | 33.94054 | -118.40070 | 93 ft | 13 kts | 173° |
| 2026-05-07 16:26 | 33.93968 | -118.40057 | 96 ft | 11 kts | 173° |
| 2026-05-07 16:27 | 33.93899 | -118.40032 | 96 ft | 10 kts | 136° |
| 2026-05-07 16:27 | 33.93888 | -118.39907 | 96 ft | 18 kts | 84° |
| 2026-05-07 16:27 | 33.93904 | -118.39744 | 95 ft | 21 kts | 83° |
| 2026-05-07 16:27 | 33.93923 | -118.39560 | 95 ft | 22 kts | 82° |
| 2026-05-07 16:28 | 33.93944 | -118.39368 | 94 ft | 24 kts | 82° |
| 2026-05-07 16:28 | 33.93965 | -118.39156 | 96 ft | 27 kts | 83° |
| 2026-05-07 16:28 | 33.93985 | -118.38954 | 96 ft | 25 kts | 83° |
| 2026-05-07 16:28 | 33.94008 | -118.38738 | 94 ft | 27 kts | 83° |
| 2026-05-07 16:29 | 33.94029 | -118.38528 | 96 ft | 22 kts | 83° |
| 2026-05-07 16:29 | 33.94042 | -118.38405 | 97 ft | 14 kts | 83° |
| 2026-05-07 16:29 | 33.94055 | -118.38277 | 97 ft | 17 kts | 83° |
| 2026-05-07 16:29 | 33.94070 | -118.38124 | 96 ft | 16 kts | 83° |
| 2026-05-07 16:30 | 33.94074 | -118.38026 | 93 ft | 11 kts | 108° |
| 2026-05-07 16:30 | 33.94000 | -118.38008 | 94 ft | 13 kts | 211° |
| 2026-05-07 16:30 | 33.93973 | -118.38122 | 94 ft | 17 kts | 263° |
| 2026-05-07 16:30 | 33.93933 | -118.38516 | 99 ft | 84 kts | 263° |
| 2026-05-07 16:31 | 33.93837 | -118.39465 | 96 ft | 141 kts | 263° |
| 2026-05-07 16:31 | 33.93701 | -118.40768 | 356 ft | 167 kts | 262° |
| 2026-05-07 16:31 | 33.93546 | -118.42163 | 1103 ft | 168 kts | 262° |
| 2026-05-07 16:31 | 33.93405 | -118.43555 | 1875 ft | 168 kts | 264° |
| 2026-05-07 16:32 | 33.93263 | -118.45022 | 2318 ft | 187 kts | 264° |
| 2026-05-07 16:32 | 33.93110 | -118.46646 | 2642 ft | 211 kts | 265° |
| 2026-05-07 16:32 | 33.92953 | -118.48503 | 3070 ft | 235 kts | 265° |
| 2026-05-07 16:32 | 33.92785 | -118.50565 | 3577 ft | 259 kts | 265° |
| 2026-05-07 16:33 | 33.92609 | -118.52770 | 4376 ft | 269 kts | 265° |
| 2026-05-07 16:33 | 33.92424 | -118.55041 | 5263 ft | 275 kts | 265° |
| 2026-05-07 16:33 | 33.92234 | -118.57347 | 6176 ft | 279 kts | 264° |
| 2026-05-07 16:33 | 33.92038 | -118.59693 | 7047 ft | 284 kts | 264° |
| 2026-05-07 16:34 | 33.91838 | -118.62082 | 7912 ft | 289 kts | 264° |
| 2026-05-07 16:34 | 33.91767 | -118.64518 | 8787 ft | 294 kts | 270° |
| 2026-05-07 16:34 | 33.91762 | -118.67001 | 9653 ft | 299 kts | 270° |
| 2026-05-07 16:34 | 33.91757 | -118.69540 | 10330 ft | 312 kts | 270° |
| 2026-05-07 16:35 | 33.91750 | -118.72208 | 10610 ft | 335 kts | 270° |
| 2026-05-07 16:35 | 33.91740 | -118.75110 | 10851 ft | 358 kts | 270° |
| 2026-05-07 16:35 | 33.91726 | -118.78148 | 11400 ft | 368 kts | 270° |
| 2026-05-07 16:35 | 33.91710 | -118.81248 | 12116 ft | 372 kts | 271° |
| 2026-05-07 16:36 | 33.91700 | -118.84379 | 12862 ft | 376 kts | 271° |
| 2026-05-07 16:36 | 33.91748 | -118.87542 | 13606 ft | 379 kts | 273° |
| 2026-05-07 16:36 | 33.91845 | -118.90728 | 14292 ft | 383 kts | 274° |
| 2026-05-07 16:36 | 33.91964 | -118.93948 | 14920 ft | 387 kts | 274° |
| 2026-05-07 16:37 | 33.92088 | -118.97202 | 15535 ft | 391 kts | 275° |
| 2026-05-07 16:37 | 33.92473 | -119.00396 | 16140 ft | 392 kts | 286° |
| 2026-05-07 16:37 | 33.93349 | -119.03501 | 16761 ft | 393 kts | 297° |
| 2026-05-07 16:37 | 33.94676 | -119.06379 | 17414 ft | 394 kts | 305° |
| 2026-05-07 16:38 | 33.96138 | -119.09189 | 18078 ft | 398 kts | 304° |
| 2026-05-07 16:38 | 33.97610 | -119.12033 | 18704 ft | 402 kts | 304° |
| 2026-05-07 16:38 | 33.99092 | -119.14904 | 19324 ft | 405 kts | 304° |
| 2026-05-07 16:38 | 34.00721 | -119.17678 | 19948 ft | 406 kts | 313° |
| 2026-05-07 16:39 | 34.02721 | -119.20067 | 20551 ft | 406 kts | 323° |
| 2026-05-07 16:39 | 34.04999 | -119.22086 | 21130 ft | 408 kts | 327° |
| 2026-05-07 16:39 | 34.07290 | -119.24047 | 21680 ft | 411 kts | 326° |
| 2026-05-07 16:39 | 34.09628 | -119.26050 | 22222 ft | 413 kts | 326° |
| 2026-05-07 16:40 | 34.11979 | -119.28067 | 22746 ft | 416 kts | 326° |
| 2026-05-07 16:40 | 34.14345 | -119.30102 | 23250 ft | 419 kts | 326° |
| 2026-05-07 16:40 | 34.16725 | -119.32148 | 23733 ft | 422 kts | 326° |
| 2026-05-07 16:40 | 34.19125 | -119.34213 | 24136 ft | 424 kts | 326° |
| 2026-05-07 16:41 | 34.21532 | -119.36287 | 24549 ft | 426 kts | 326° |
| 2026-05-07 16:41 | 34.23945 | -119.38371 | 24950 ft | 429 kts | 326° |
| 2026-05-07 16:41 | 34.26377 | -119.40476 | 25345 ft | 431 kts | 326° |
| 2026-05-07 16:41 | 34.28822 | -119.42593 | 25744 ft | 433 kts | 326° |
| 2026-05-07 16:42 | 34.31275 | -119.44717 | 26138 ft | 435 kts | 326° |
| 2026-05-07 16:42 | 34.33743 | -119.46851 | 26538 ft | 437 kts | 326° |
| 2026-05-07 16:42 | 34.36184 | -119.48966 | 26925 ft | 439 kts | 326° |
| 2026-05-07 16:42 | 34.38667 | -119.51121 | 27316 ft | 441 kts | 326° |
| 2026-05-07 16:43 | 34.41122 | -119.53366 | 27694 ft | 444 kts | 320° |
| 2026-05-07 16:43 | 34.43341 | -119.55980 | 28061 ft | 447 kts | 316° |
| 2026-05-07 16:43 | 34.45526 | -119.58674 | 28427 ft | 449 kts | 316° |
| 2026-05-07 16:43 | 34.47723 | -119.61376 | 28778 ft | 451 kts | 316° |
| 2026-05-07 16:44 | 34.49932 | -119.64086 | 29127 ft | 453 kts | 316° |
| 2026-05-07 16:44 | 34.52147 | -119.66805 | 29470 ft | 454 kts | 316° |
| 2026-05-07 16:44 | 34.54366 | -119.69535 | 29939 ft | 453 kts | 316° |
| 2026-05-07 16:44 | 34.56541 | -119.72218 | 30399 ft | 451 kts | 316° |
| 2026-05-07 16:45 | 34.58734 | -119.74928 | 30829 ft | 449 kts | 316° |
| 2026-05-07 16:45 | 34.60918 | -119.77629 | 31231 ft | 447 kts | 316° |
| 2026-05-07 16:45 | 34.63093 | -119.80319 | 31685 ft | 445 kts | 316° |
| 2026-05-07 16:45 | 34.65252 | -119.82990 | 32130 ft | 442 kts | 316° |
| 2026-05-07 16:46 | 34.67401 | -119.85651 | 32591 ft | 440 kts | 316° |
| 2026-05-07 16:46 | 34.69541 | -119.88303 | 33065 ft | 438 kts | 316° |
| 2026-05-07 16:46 | 34.71670 | -119.90942 | 33564 ft | 435 kts | 316° |
| 2026-05-07 16:46 | 34.73784 | -119.93565 | 34046 ft | 433 kts | 316° |
| 2026-05-07 16:47 | 34.75889 | -119.96177 | 34481 ft | 431 kts | 316° |
| 2026-05-07 16:47 | 34.77952 | -119.98739 | 34890 ft | 429 kts | 316° |
| 2026-05-07 16:47 | 34.80038 | -120.01337 | 35312 ft | 428 kts | 316° |
| 2026-05-07 16:47 | 34.82112 | -120.03925 | 35703 ft | 426 kts | 316° |
| 2026-05-07 16:48 | 34.84175 | -120.06500 | 36023 ft | 426 kts | 316° |
| 2026-05-07 16:48 | 34.88325 | -120.11664 | 36102 ft | 427 kts | 316° |
| 2026-05-07 16:49 | 34.92484 | -120.16852 | 36115 ft | 428 kts | 315° |
| 2026-05-07 16:49 | 34.96633 | -120.22046 | 36119 ft | 428 kts | 315° |
| 2026-05-07 16:50 | 35.00756 | -120.27207 | 36122 ft | 428 kts | 315° |
| 2026-05-07 16:50 | 35.04909 | -120.32417 | 36123 ft | 428 kts | 315° |
| 2026-05-07 16:51 | 35.09056 | -120.37631 | 36131 ft | 428 kts | 316° |
| 2026-05-07 16:51 | 35.13368 | -120.42627 | 36130 ft | 428 kts | 319° |
| 2026-05-07 16:52 | 35.17779 | -120.47430 | 36123 ft | 428 kts | 319° |
| 2026-05-07 16:52 | 35.22209 | -120.52295 | 36121 ft | 428 kts | 319° |
| 2026-05-07 16:53 | 35.26603 | -120.57223 | 36127 ft | 429 kts | 318° |
| 2026-05-07 16:53 | 35.30981 | -120.62173 | 36131 ft | 429 kts | 318° |
| 2026-05-07 16:54 | 35.35324 | -120.67099 | 36137 ft | 428 kts | 318° |
| 2026-05-07 16:54 | 35.39705 | -120.72050 | 36143 ft | 428 kts | 318° |
| 2026-05-07 16:55 | 35.44089 | -120.77005 | 36151 ft | 429 kts | 318° |
| 2026-05-07 16:55 | 35.48489 | -120.81933 | 36187 ft | 428 kts | 322° |
| 2026-05-07 16:56 | 35.53233 | -120.86336 | 36189 ft | 428 kts | 323° |
| 2026-05-07 16:56 | 35.60328 | -120.92924 | 36193 ft | 428 kts | 323° |
| 2026-05-07 16:57 | 35.65075 | -120.97341 | 36160 ft | 428 kts | 323° |
| 2026-05-07 16:57 | 35.69829 | -121.01764 | 36170 ft | 428 kts | 323° |
| 2026-05-07 16:58 | 35.74570 | -121.06193 | 36179 ft | 428 kts | 323° |
| 2026-05-07 16:58 | 35.79291 | -121.10596 | 36175 ft | 429 kts | 323° |
| 2026-05-07 16:59 | 35.84047 | -121.15043 | 36179 ft | 429 kts | 323° |
| 2026-05-07 16:59 | 35.88800 | -121.19498 | 36181 ft | 429 kts | 323° |
| 2026-05-07 17:00 | 35.93554 | -121.23959 | 36184 ft | 429 kts | 323° |
| 2026-05-07 17:00 | 35.98272 | -121.28400 | 36181 ft | 430 kts | 323° |
| 2026-05-07 17:01 | 36.03027 | -121.32875 | 36179 ft | 430 kts | 323° |
| 2026-05-07 17:01 | 36.07843 | -121.37255 | 36183 ft | 430 kts | 328° |
| 2026-05-07 17:02 | 36.12908 | -121.41190 | 36041 ft | 431 kts | 328° |
| 2026-05-07 17:02 | 36.15462 | -121.43177 | 35166 ft | 436 kts | 328° |
| 2026-05-07 17:02 | 36.18002 | -121.45160 | 34371 ft | 438 kts | 328° |
| 2026-05-07 17:03 | 36.20580 | -121.47173 | 33473 ft | 440 kts | 328° |
| 2026-05-07 17:03 | 36.23172 | -121.49199 | 32566 ft | 442 kts | 328° |
| 2026-05-07 17:03 | 36.25781 | -121.51241 | 31572 ft | 445 kts | 328° |
| 2026-05-07 17:03 | 36.28394 | -121.53290 | 30675 ft | 447 kts | 328° |
| 2026-05-07 17:04 | 36.31042 | -121.55369 | 29496 ft | 452 kts | 328° |
| 2026-05-07 17:04 | 36.33703 | -121.57457 | 28342 ft | 455 kts | 328° |
| 2026-05-07 17:04 | 36.36379 | -121.59558 | 27213 ft | 456 kts | 328° |
| 2026-05-07 17:04 | 36.39069 | -121.61669 | 26169 ft | 457 kts | 328° |
| 2026-05-07 17:05 | 36.41699 | -121.63732 | 25512 ft | 449 kts | 328° |
| 2026-05-07 17:05 | 36.44287 | -121.65766 | 25357 ft | 431 kts | 328° |
| 2026-05-07 17:05 | 36.46770 | -121.67722 | 25235 ft | 414 kts | 328° |
| 2026-05-07 17:05 | 36.49162 | -121.69613 | 24948 ft | 403 kts | 328° |
| 2026-05-07 17:06 | 36.51508 | -121.71470 | 24626 ft | 397 kts | 328° |
| 2026-05-07 17:06 | 36.53838 | -121.73318 | 24128 ft | 397 kts | 328° |
| 2026-05-07 17:06 | 36.56169 | -121.75165 | 23534 ft | 398 kts | 328° |
| 2026-05-07 17:06 | 36.58489 | -121.76997 | 23038 ft | 391 kts | 329° |
| 2026-05-07 17:07 | 36.60771 | -121.78797 | 22384 ft | 386 kts | 328° |
| 2026-05-07 17:07 | 36.63035 | -121.80580 | 21846 ft | 383 kts | 328° |
| 2026-05-07 17:07 | 36.65247 | -121.82330 | 21319 ft | 380 kts | 328° |
| 2026-05-07 17:07 | 36.67475 | -121.84105 | 20791 ft | 381 kts | 328° |
| 2026-05-07 17:08 | 36.69707 | -121.85885 | 20157 ft | 381 kts | 328° |
| 2026-05-07 17:08 | 36.71905 | -121.87636 | 19561 ft | 371 kts | 328° |
| 2026-05-07 17:08 | 36.74161 | -121.89155 | 19043 ft | 368 kts | 338° |
| 2026-05-07 17:08 | 36.76599 | -121.90102 | 18566 ft | 365 kts | 347° |
| 2026-05-07 17:09 | 36.79087 | -121.90786 | 18047 ft | 365 kts | 347° |
| 2026-05-07 17:09 | 36.81555 | -121.91470 | 17581 ft | 362 kts | 347° |
| 2026-05-07 17:09 | 36.84002 | -121.92153 | 17115 ft | 360 kts | 347° |
| 2026-05-07 17:09 | 36.86405 | -121.92823 | 16650 ft | 358 kts | 347° |
| 2026-05-07 17:10 | 36.88826 | -121.93501 | 16193 ft | 356 kts | 347° |
| 2026-05-07 17:10 | 36.91233 | -121.94176 | 15740 ft | 354 kts | 347° |
| 2026-05-07 17:10 | 36.93627 | -121.94849 | 15278 ft | 352 kts | 347° |
| 2026-05-07 17:10 | 36.96003 | -121.95550 | 14786 ft | 350 kts | 345° |
| 2026-05-07 17:11 | 36.98339 | -121.96376 | 14094 ft | 347 kts | 343° |
| 2026-05-07 17:11 | 37.00631 | -121.97278 | 13401 ft | 346 kts | 342° |
| 2026-05-07 17:11 | 37.02910 | -121.98213 | 12749 ft | 344 kts | 341° |
| 2026-05-07 17:11 | 37.05174 | -121.99148 | 12107 ft | 342 kts | 341° |
| 2026-05-07 17:12 | 37.07439 | -122.00068 | 11464 ft | 342 kts | 341° |
| 2026-05-07 17:12 | 37.09652 | -122.00954 | 10840 ft | 336 kts | 342° |
| 2026-05-07 17:12 | 37.11870 | -122.01828 | 10220 ft | 332 kts | 342° |
| 2026-05-07 17:12 | 37.14010 | -122.02661 | 9953 ft | 311 kts | 342° |
| 2026-05-07 17:13 | 37.16028 | -122.03443 | 9652 ft | 295 kts | 341° |
| 2026-05-07 17:13 | 37.17991 | -122.04209 | 9527 ft | 296 kts | 341° |
| 2026-05-07 17:13 | 37.19948 | -122.04975 | 9393 ft | 291 kts | 341° |
| 2026-05-07 17:13 | 37.21848 | -122.05719 | 9252 ft | 284 kts | 341° |
| 2026-05-07 17:14 | 37.23720 | -122.06457 | 8900 ft | 284 kts | 341° |
| 2026-05-07 17:14 | 37.25627 | -122.07210 | 8575 ft | 282 kts | 341° |
| 2026-05-07 17:14 | 37.27471 | -122.07936 | 8253 ft | 281 kts | 341° |
| 2026-05-07 17:14 | 37.29316 | -122.08661 | 7789 ft | 276 kts | 341° |
| 2026-05-07 17:15 | 37.31127 | -122.09372 | 7365 ft | 268 kts | 341° |
| 2026-05-07 17:15 | 37.32877 | -122.10060 | 6990 ft | 260 kts | 341° |
| 2026-05-07 17:15 | 37.34575 | -122.10728 | 6632 ft | 252 kts | 341° |
| 2026-05-07 17:15 | 37.36218 | -122.11376 | 6271 ft | 243 kts | 340° |
| 2026-05-07 17:16 | 37.37802 | -122.11996 | 5994 ft | 231 kts | 341° |
| 2026-05-07 17:16 | 37.39290 | -122.12529 | 5794 ft | 217 kts | 343° |
| 2026-05-07 17:16 | 37.40735 | -122.13021 | 5534 ft | 214 kts | 343° |
| 2026-05-07 17:16 | 37.42141 | -122.13493 | 5402 ft | 205 kts | 343° |
| 2026-05-07 17:17 | 37.43494 | -122.13949 | 5250 ft | 198 kts | 343° |
| 2026-05-07 17:17 | 37.44800 | -122.14392 | 5018 ft | 196 kts | 344° |
| 2026-05-07 17:17 | 37.46116 | -122.14834 | 4753 ft | 195 kts | 345° |
| 2026-05-07 17:17 | 37.47424 | -122.15264 | 4374 ft | 194 kts | 345° |
| 2026-05-07 17:18 | 37.48735 | -122.15691 | 4124 ft | 193 kts | 344° |
| 2026-05-07 17:18 | 37.50030 | -122.16114 | 3858 ft | 192 kts | 345° |
| 2026-05-07 17:18 | 37.51323 | -122.16538 | 3576 ft | 192 kts | 344° |
| 2026-05-07 17:18 | 37.52576 | -122.17061 | 3352 ft | 189 kts | 332° |
| 2026-05-07 17:19 | 37.53645 | -122.17997 | 3097 ft | 187 kts | 315° |
| 2026-05-07 17:19 | 37.54400 | -122.19303 | 2828 ft | 187 kts | 300° |
| 2026-05-07 17:19 | 37.55036 | -122.20733 | 2684 ft | 189 kts | 298° |
| 2026-05-07 17:19 | 37.55656 | -122.22184 | 2488 ft | 186 kts | 297° |
| 2026-05-07 17:20 | 37.56258 | -122.23607 | 2229 ft | 182 kts | 297° |
| 2026-05-07 17:20 | 37.56837 | -122.24979 | 1986 ft | 172 kts | 296° |
| 2026-05-07 17:20 | 37.57384 | -122.26277 | 1759 ft | 164 kts | 297° |
| 2026-05-07 17:20 | 37.57906 | -122.27517 | 1535 ft | 155 kts | 297° |
| 2026-05-07 17:21 | 37.58385 | -122.28654 | 1330 ft | 144 kts | 296° |
| 2026-05-07 17:21 | 37.58837 | -122.29727 | 1139 ft | 136 kts | 296° |
| 2026-05-07 17:21 | 37.59273 | -122.30755 | 953 ft | 131 kts | 297° |
| 2026-05-07 17:21 | 37.59696 | -122.31749 | 766 ft | 129 kts | 297° |
| 2026-05-07 17:22 | 37.60116 | -122.32750 | 581 ft | 130 kts | 297° |
| 2026-05-07 17:22 | 37.60525 | -122.33745 | 433 ft | 128 kts | 296° |
| 2026-05-07 17:22 | 37.60939 | -122.34734 | 266 ft | 128 kts | 297° |
| 2026-05-07 17:22 | 37.61352 | -122.35716 | 113 ft | 126 kts | 297° |
| 2026-05-07 17:23 | 37.61756 | -122.36682 | 27 ft | 116 kts | 298° |
| 2026-05-07 17:23 | 37.62061 | -122.37403 | 22 ft | 69 kts | 297° |
| 2026-05-07 17:23 | 37.62217 | -122.37796 | 22 ft | 38 kts | 290° |
| 2026-05-07 17:23 | 37.62229 | -122.38041 | 24 ft | 14 kts | 265° |
| 2026-05-07 17:24 | 37.62226 | -122.38094 | 22 ft | 0 kts | 268° |
| 2026-05-07 17:24 | 37.62226 | -122.38104 | 22 ft | 3 kts | 268° |
| 2026-05-07 17:24 | 37.62224 | -122.38147 | 22 ft | 7 kts | 260° |
| 2026-05-07 17:25 | 37.62183 | -122.38197 | 22 ft | 10 kts | 205° |
| 2026-05-07 17:25 | 37.62111 | -122.38245 | 22 ft | 12 kts | 209° |
| 2026-05-07 17:25 | 37.62034 | -122.38297 | 24 ft | 13 kts | 201° |
| 2026-05-07 17:25 | 37.61978 | -122.38238 | 22 ft | 9 kts | 127° |
| 2026-05-07 17:26 | 37.61925 | -122.38248 | 22 ft | 10 kts | 209° |
| 2026-05-07 17:26 | 37.61864 | -122.38302 | 23 ft | 10 kts | 243° |
| 2026-05-07 17:26 | 37.61879 | -122.38370 | 23 ft | 5 kts | 297° |
| 2026-05-07 17:26 | 37.61885 | -122.38386 | 22 ft | 0 kts | 298° |